createdAt,value
2022-11-10T00:00:28.051Z,30.70
2022-11-10T00:03:44.070Z,30.80
2022-11-10T00:06:54.137Z,29.30
2022-11-10T00:10:02.092Z,28.70
2022-11-10T00:13:09.113Z,28.70
2022-11-10T00:16:19.129Z,28.70
2022-11-10T00:19:29.173Z,29.00
2022-11-10T00:22:39.119Z,28.60
2022-11-10T00:25:46.146Z,28.30
2022-11-10T00:28:53.152Z,29.10
2022-11-10T00:32:03.153Z,28.40
2022-11-10T00:35:10.236Z,28.60
2022-11-10T00:38:20.164Z,26.90
2022-11-10T00:41:27.267Z,27.80
2022-11-10T00:44:37.215Z,27.80
2022-11-10T00:47:44.243Z,26.70
2022-11-10T00:50:54.185Z,26.90
2022-11-10T00:54:01.201Z,25.70
2022-11-10T00:57:08.289Z,25.70
2022-11-10T01:00:18.226Z,26.10
2022-11-10T01:03:28.398Z,26.70
2022-11-10T01:06:38.288Z,25.70
2022-11-10T01:09:48.257Z,25.20
2022-11-10T01:12:55.237Z,26.10
2022-11-10T01:16:05.274Z,25.60
2022-11-10T01:19:15.251Z,26.70
2022-11-10T01:22:22.266Z,25.40
2022-11-10T01:25:30.282Z,26.00
2022-11-10T01:28:43.288Z,24.30
2022-11-10T01:31:50.291Z,23.50
2022-11-10T01:34:57.289Z,23.70
2022-11-10T01:38:07.319Z,22.50
2022-11-10T01:41:14.324Z,23.80
2022-11-10T01:44:21.331Z,24.30
2022-11-10T01:47:28.332Z,23.20
2022-11-10T01:50:35.340Z,22.80
2022-11-10T01:53:42.375Z,22.00
2022-11-10T01:56:49.367Z,23.40
2022-11-10T01:59:59.353Z,22.60
2022-11-10T02:03:06.388Z,22.80
2022-11-10T02:06:13.356Z,21.80
2022-11-10T02:09:20.352Z,22.60
2022-11-10T02:12:28.396Z,23.00
2022-11-10T02:15:35.411Z,20.70
2022-11-10T02:18:42.404Z,21.50
2022-11-10T02:21:49.407Z,20.10
2022-11-10T02:24:56.424Z,21.50
2022-11-10T02:28:06.475Z,21.50
2022-11-10T02:31:13.446Z,21.20
2022-11-10T02:34:24.474Z,21.90
2022-11-10T02:37:31.453Z,21.80
2022-11-10T02:40:38.476Z,22.00
2022-11-10T02:43:45.584Z,21.00
2022-11-10T02:46:56.495Z,21.10
2022-11-10T02:50:06.509Z,21.60
2022-11-10T02:53:16.464Z,21.60
2022-11-10T02:56:26.520Z,21.20
2022-11-10T02:59:36.504Z,22.00
2022-11-10T03:02:43.523Z,21.50
2022-11-10T03:05:53.568Z,19.90
2022-11-10T03:09:03.534Z,19.90
2022-11-10T03:12:10.484Z,18.90
2022-11-10T03:15:17.574Z,20.90
2022-11-10T03:18:24.550Z,20.30
2022-11-10T03:21:35.266Z,20.60
2022-11-10T03:24:42.530Z,21.80
2022-11-10T03:27:49.583Z,20.60
2022-11-10T03:30:56.570Z,19.80
2022-11-10T03:34:06.572Z,20.90
2022-11-10T03:37:17.616Z,20.10
2022-11-10T03:40:27.591Z,20.30
2022-11-10T03:43:34.666Z,20.50
2022-11-10T03:46:49.067Z,20.40
2022-11-10T03:49:58.581Z,20.20
2022-11-10T03:53:05.660Z,20.90
2022-11-10T03:56:13.659Z,21.00
2022-11-10T03:59:23.623Z,19.60
2022-11-10T04:02:30.658Z,19.60
2022-11-10T04:05:37.693Z,20.20
2022-11-10T04:08:44.698Z,18.00
2022-11-10T04:11:54.697Z,19.40
2022-11-10T04:15:01.736Z,18.90
2022-11-10T04:18:08.705Z,20.80
2022-11-10T04:21:15.702Z,20.40
2022-11-10T04:24:22.704Z,18.80
2022-11-10T04:27:29.718Z,19.30
2022-11-10T04:30:36.700Z,18.00
2022-11-10T04:33:43.780Z,19.10
2022-11-10T04:36:50.712Z,18.20
2022-11-10T04:40:00.775Z,17.70
2022-11-10T04:43:10.815Z,17.90
2022-11-10T04:46:17.790Z,16.70
2022-11-10T04:49:24.829Z,17.60
2022-11-10T04:52:38.769Z,17.50
2022-11-10T04:55:48.801Z,17.10
2022-11-10T04:58:55.810Z,18.20
2022-11-10T05:02:05.819Z,18.10
2022-11-10T05:05:15.807Z,18.20
2022-11-10T05:08:22.816Z,18.20
2022-11-10T05:11:32.796Z,18.00
2022-11-10T05:14:39.821Z,17.10
2022-11-10T05:17:46.873Z,17.50
2022-11-10T05:20:53.856Z,18.70
2022-11-10T05:24:02.892Z,18.90
2022-11-10T05:27:12.870Z,18.40
2022-11-10T05:30:22.890Z,18.40
2022-11-10T05:33:29.912Z,19.80
2022-11-10T05:36:36.912Z,19.60
2022-11-10T05:39:43.941Z,20.30
2022-11-10T05:42:57.019Z,18.90
2022-11-10T05:46:09.911Z,19.50
2022-11-10T05:49:16.917Z,19.20
2022-11-10T05:52:23.932Z,17.10
2022-11-10T05:55:30.922Z,17.00
2022-11-10T05:58:40.990Z,17.80
2022-11-10T06:01:50.948Z,16.70
2022-11-10T06:04:57.959Z,16.70
2022-11-10T06:08:06.119Z,17.40
2022-11-10T06:11:13.021Z,16.80
2022-11-10T06:14:26.025Z,17.90
2022-11-10T06:17:33.019Z,17.80
2022-11-10T06:20:40.001Z,18.40
2022-11-10T06:23:50.052Z,17.70
2022-11-10T06:27:00.014Z,18.80
2022-11-10T06:30:07.040Z,19.30
2022-11-10T06:33:14.127Z,20.40
2022-11-10T06:36:21.069Z,18.40
2022-11-10T06:39:51.293Z,18.60
2022-11-10T06:42:58.051Z,18.90
2022-11-10T06:46:05.061Z,18.70
2022-11-10T06:49:15.085Z,19.80
2022-11-10T06:52:22.072Z,19.60
2022-11-10T06:55:29.084Z,19.90
2022-11-10T06:58:36.087Z,22.00
2022-11-10T07:01:43.127Z,24.90
2022-11-10T07:04:50.142Z,25.40
2022-11-10T07:07:57.139Z,28.00
2022-11-10T07:11:07.112Z,29.60
2022-11-10T07:14:14.297Z,27.50
2022-11-10T07:17:24.286Z,27.20
2022-11-10T07:20:34.146Z,26.80
2022-11-10T07:23:47.219Z,26.20
2022-11-10T07:27:00.148Z,25.80
2022-11-10T07:30:07.205Z,26.80
2022-11-10T07:33:17.298Z,27.70
2022-11-10T07:36:27.194Z,28.90
2022-11-10T07:39:37.230Z,27.70
2022-11-10T07:42:44.253Z,28.60
2022-11-10T07:45:51.211Z,29.10
2022-11-10T07:49:01.899Z,29.90
2022-11-10T07:52:09.257Z,31.50
2022-11-10T07:55:16.259Z,33.20
2022-11-10T07:58:23.242Z,31.90
2022-11-10T08:01:33.271Z,33.20
2022-11-10T08:04:41.270Z,33.40
2022-11-10T08:07:48.345Z,33.70
2022-11-10T08:10:58.285Z,31.60
2022-11-10T08:14:05.334Z,31.90
2022-11-10T08:17:12.267Z,34.00
2022-11-10T08:20:19.291Z,33.30
2022-11-10T08:23:26.266Z,31.70
2022-11-10T08:26:33.329Z,30.70
2022-11-10T08:29:43.329Z,35.10
2022-11-10T08:32:50.355Z,35.10
2022-11-10T08:36:03.550Z,34.40
2022-11-10T08:39:24.911Z,32.90
2022-11-10T08:42:42.373Z,32.00
2022-11-10T08:45:52.535Z,30.60
2022-11-10T08:49:02.370Z,34.30
2022-11-10T08:52:13.495Z,33.80
2022-11-10T08:55:20.414Z,32.00
2022-11-10T08:58:27.479Z,31.20
2022-11-10T09:01:34.433Z,28.50
2022-11-10T09:04:41.652Z,27.40
2022-11-10T09:07:49.426Z,30.00
2022-11-10T09:10:56.409Z,32.30
2022-11-10T09:14:03.446Z,34.00
2022-11-10T09:17:10.506Z,34.20
2022-11-10T09:20:20.413Z,33.30
2022-11-10T09:23:30.448Z,24.50
2022-11-10T09:26:37.495Z,24.20
2022-11-10T09:29:47.452Z,24.80
2022-11-10T09:32:54.485Z,29.70
2022-11-10T09:36:01.433Z,29.10
2022-11-10T09:39:08.523Z,25.70
2022-11-10T09:42:15.506Z,27.40
2022-11-10T09:45:25.531Z,26.80
2022-11-10T09:48:32.525Z,27.20
2022-11-10T09:51:47.958Z,23.90
2022-11-10T09:54:55.516Z,22.50
2022-11-10T09:58:05.592Z,23.70
2022-11-10T10:01:15.717Z,22.40
2022-11-10T10:04:28.642Z,22.60
2022-11-10T10:07:35.567Z,21.70
2022-11-10T10:10:45.590Z,19.80
2022-11-10T10:13:52.702Z,22.40
2022-11-10T10:17:04.645Z,23.00
2022-11-10T10:20:14.698Z,23.80
2022-11-10T10:23:46.737Z,25.20
2022-11-10T10:26:51.660Z,23.80
2022-11-10T10:30:01.680Z,21.80
2022-11-10T10:33:08.631Z,21.60
2022-11-10T10:36:15.679Z,25.40
2022-11-10T10:39:29.671Z,24.90
2022-11-10T10:42:36.680Z,25.00
2022-11-10T10:45:58.795Z,24.20
2022-11-10T10:52:39.666Z,24.20
2022-11-10T10:55:46.732Z,24.80
2022-11-10T10:58:56.708Z,21.50
2022-11-10T11:02:06.726Z,24.90
2022-11-10T11:05:13.714Z,22.90
2022-11-10T11:08:29.780Z,20.90
2022-11-10T11:11:39.750Z,25.10
2022-11-10T11:14:49.769Z,27.90
2022-11-10T11:17:57.693Z,23.50
2022-11-10T11:21:09.704Z,27.90
2022-11-10T11:24:22.798Z,25.60
2022-11-10T11:27:32.741Z,24.40
2022-11-10T11:30:39.797Z,22.40
2022-11-10T11:33:46.778Z,24.80
2022-11-10T11:36:53.845Z,24.00
2022-11-10T11:40:13.827Z,24.40
2022-11-10T11:43:21.831Z,23.70
2022-11-10T11:46:28.822Z,22.70
2022-11-10T11:49:38.823Z,22.90
2022-11-10T11:52:45.823Z,23.20
2022-11-10T11:55:53.989Z,20.60
2022-11-10T11:59:01.881Z,20.10
2022-11-10T12:02:11.940Z,22.50
2022-11-10T12:05:18.857Z,21.70
2022-11-10T12:08:26.955Z,21.50
2022-11-10T12:11:34.859Z,23.00
2022-11-10T12:14:44.872Z,24.80
2022-11-10T12:17:54.920Z,24.00
2022-11-10T12:21:04.953Z,24.00
2022-11-10T12:24:19.959Z,21.10
2022-11-10T12:27:29.960Z,22.10
2022-11-10T12:30:36.923Z,22.60
2022-11-10T12:33:46.984Z,20.40
2022-11-10T12:36:56.975Z,21.10
2022-11-10T12:40:03.996Z,20.60
2022-11-10T12:43:10.952Z,22.40
2022-11-10T12:46:21.006Z,21.70
2022-11-10T12:49:28.105Z,19.90
2022-11-10T12:52:37.954Z,20.90
2022-11-10T12:55:45.016Z,18.70
2022-11-10T12:58:56.088Z,20.60
2022-11-10T13:02:06.082Z,20.50
2022-11-10T13:05:17.221Z,20.40
2022-11-10T13:08:32.109Z,21.80
2022-11-10T13:15:02.162Z,20.10
2022-11-10T13:18:17.096Z,21.40
2022-11-10T13:21:30.134Z,19.80
2022-11-10T13:24:50.214Z,21.40
2022-11-10T13:28:11.171Z,18.10
2022-11-10T13:31:21.107Z,19.40
2022-11-10T13:34:28.184Z,20.40
2022-11-10T13:37:38.176Z,20.00
2022-11-10T13:40:49.143Z,21.50
2022-11-10T13:43:59.156Z,18.30
2022-11-10T13:47:09.252Z,18.90
2022-11-10T13:50:19.148Z,21.60
2022-11-10T13:53:26.135Z,19.60
2022-11-10T13:56:36.282Z,15.20
2022-11-10T13:59:46.155Z,17.30
2022-11-10T14:02:56.300Z,21.50
2022-11-10T14:06:04.128Z,24.40
2022-11-10T14:09:17.187Z,26.40
2022-11-10T14:12:26.148Z,26.20
2022-11-10T14:15:33.204Z,21.20
2022-11-10T14:18:41.304Z,20.80
2022-11-10T14:21:59.280Z,23.10
2022-11-10T14:25:09.212Z,22.20
2022-11-10T14:28:19.429Z,24.20
2022-11-10T14:35:01.262Z,24.00
2022-11-10T14:38:16.637Z,25.00
2022-11-10T14:41:34.341Z,25.30
2022-11-10T14:44:44.387Z,24.10
2022-11-10T14:47:55.332Z,23.30
2022-11-10T14:51:07.712Z,22.50
2022-11-10T14:54:19.358Z,21.10
2022-11-10T14:57:26.342Z,21.30
2022-11-10T15:00:36.384Z,21.90
2022-11-10T15:03:52.341Z,22.00
2022-11-10T15:07:05.626Z,22.10
2022-11-10T15:10:13.428Z,22.30
2022-11-10T15:13:23.441Z,22.50
2022-11-10T15:16:31.305Z,23.60
2022-11-10T15:19:38.327Z,23.20
2022-11-10T15:22:45.457Z,25.10
2022-11-10T15:25:58.350Z,26.40
2022-11-10T15:29:08.488Z,25.00
2022-11-10T15:32:18.410Z,26.50
2022-11-10T15:35:28.415Z,26.90
2022-11-10T15:38:35.384Z,25.40
2022-11-10T15:41:42.484Z,26.70
2022-11-10T15:44:52.439Z,26.50
2022-11-10T15:47:59.490Z,26.80
2022-11-10T15:51:09.442Z,27.40
2022-11-10T15:54:22.460Z,27.20
2022-11-10T15:57:32.423Z,27.80
2022-11-10T16:00:39.438Z,27.90
2022-11-10T16:03:49.513Z,26.60
2022-11-10T16:06:59.488Z,27.60
2022-11-10T16:10:12.528Z,26.40
2022-11-10T16:13:25.723Z,28.00
2022-11-10T16:16:39.488Z,27.30
2022-11-10T16:19:46.500Z,27.60
2022-11-10T16:22:57.981Z,27.20
2022-11-10T16:26:08.551Z,27.50
2022-11-10T16:29:24.569Z,27.90
2022-11-10T16:32:41.919Z,30.30
2022-11-10T16:35:49.560Z,31.60
2022-11-10T16:38:59.618Z,29.30
2022-11-10T16:42:09.596Z,32.30
2022-11-10T16:45:19.571Z,38.50
2022-11-10T16:48:26.559Z,38.30
2022-11-10T16:51:33.570Z,38.00
2022-11-10T16:54:40.718Z,40.50
2022-11-10T16:57:50.629Z,40.50
2022-11-10T17:00:57.588Z,42.10
2022-11-10T17:04:08.619Z,47.80
2022-11-10T17:07:16.649Z,50.50
2022-11-10T17:10:26.635Z,49.90
2022-11-10T17:13:33.650Z,57.30
2022-11-10T17:16:43.627Z,59.60
2022-11-10T17:19:52.249Z,60.80
2022-11-10T17:23:02.630Z,62.00
2022-11-10T17:26:09.667Z,57.00
2022-11-10T17:29:26.666Z,56.80
2022-11-10T17:33:03.775Z,55.50
2022-11-10T17:36:11.627Z,50.00
2022-11-10T17:39:18.814Z,48.00
2022-11-10T17:42:28.697Z,47.30
2022-11-10T17:45:39.714Z,92.10
2022-11-10T17:48:49.791Z,49.40
2022-11-10T17:51:59.761Z,51.60
2022-11-10T17:55:33.777Z,52.00
2022-11-10T17:58:44.798Z,51.30
2022-11-10T18:01:57.845Z,51.00
2022-11-10T18:05:08.408Z,51.90
2022-11-10T18:08:15.759Z,50.30
2022-11-10T18:11:25.747Z,52.40
2022-11-10T18:14:35.755Z,55.00
2022-11-10T18:17:42.768Z,57.10
2022-11-10T18:20:49.857Z,57.50
2022-11-10T18:24:01.771Z,55.80
2022-11-10T18:27:11.797Z,56.60
2022-11-10T18:30:21.814Z,54.60
2022-11-10T18:33:28.841Z,57.00
2022-11-10T18:36:36.808Z,55.70
2022-11-10T18:39:43.927Z,53.50
2022-11-10T18:42:53.882Z,53.60
2022-11-10T18:46:03.841Z,52.80
2022-11-10T18:49:10.896Z,53.90
2022-11-10T18:52:20.853Z,55.00
2022-11-10T18:55:27.854Z,53.80
2022-11-10T18:58:46.947Z,52.90
2022-11-10T19:01:56.985Z,51.70
2022-11-10T19:05:06.913Z,53.60
2022-11-10T19:08:16.943Z,54.70
2022-11-10T19:11:26.915Z,54.00
2022-11-10T19:14:37.970Z,55.50
2022-11-10T19:17:47.959Z,54.30
2022-11-10T19:20:54.960Z,55.40
2022-11-10T19:24:04.961Z,52.80
2022-11-10T19:27:18.981Z,52.50
2022-11-10T19:30:32.966Z,52.10
2022-11-10T19:33:46.049Z,50.60
2022-11-10T19:36:58.390Z,52.30
2022-11-10T19:40:11.014Z,50.50
2022-11-10T19:43:21.191Z,48.10
2022-11-10T19:46:30.991Z,46.80
2022-11-10T19:49:41.047Z,45.20
2022-11-10T19:52:51.174Z,45.50
2022-11-10T19:56:04.053Z,45.00
2022-11-10T19:59:25.036Z,45.50
2022-11-10T20:02:32.051Z,44.60
2022-11-10T20:05:39.042Z,44.90
2022-11-10T20:08:46.101Z,44.50
2022-11-10T20:11:59.106Z,42.40
2022-11-10T20:15:09.231Z,40.70
2022-11-10T20:18:17.089Z,41.80
2022-11-10T20:21:24.121Z,40.10
2022-11-10T20:24:34.054Z,41.30
2022-11-10T20:27:44.107Z,41.40
2022-11-10T20:30:54.105Z,41.40
2022-11-10T20:34:01.120Z,41.10
2022-11-10T20:37:08.133Z,38.50
2022-11-10T20:40:43.030Z,40.60
2022-11-10T20:43:47.165Z,39.00
2022-11-10T20:46:57.192Z,35.70
2022-11-10T20:50:04.195Z,38.90
2022-11-10T20:53:14.195Z,38.40
2022-11-10T20:56:24.121Z,36.80
2022-11-10T20:59:38.222Z,35.60
2022-11-10T21:02:45.216Z,32.90
2022-11-10T21:05:52.190Z,33.80
2022-11-10T21:09:02.224Z,33.00
2022-11-10T21:12:11.190Z,34.50
2022-11-10T21:15:18.234Z,33.20
2022-11-10T21:18:25.214Z,32.50
2022-11-10T21:21:32.193Z,30.80
2022-11-10T21:24:39.218Z,31.30
2022-11-10T21:27:49.308Z,29.90
2022-11-10T21:30:59.293Z,31.20
2022-11-10T21:34:06.266Z,29.80
2022-11-10T21:37:13.266Z,29.30
2022-11-10T21:40:20.323Z,29.50
2022-11-10T21:43:27.266Z,28.90
2022-11-10T21:46:34.285Z,30.60
2022-11-10T21:49:45.325Z,29.10
2022-11-10T21:52:55.362Z,29.10
2022-11-10T21:56:02.312Z,27.70
2022-11-10T21:59:09.329Z,29.00
2022-11-10T22:02:19.368Z,29.50
2022-11-10T22:05:26.315Z,29.90
2022-11-10T22:08:33.332Z,30.70
2022-11-10T22:11:43.344Z,30.40
2022-11-10T22:14:50.394Z,29.30
2022-11-10T22:17:57.377Z,30.30
2022-11-10T22:21:04.375Z,29.30
2022-11-10T22:24:14.381Z,30.20
2022-11-10T22:27:21.394Z,29.70
2022-11-10T22:30:28.388Z,29.10
2022-11-10T22:33:35.428Z,29.00
2022-11-10T22:36:50.429Z,27.30
2022-11-10T22:39:57.423Z,25.90
2022-11-10T22:43:04.435Z,28.70
2022-11-10T22:46:14.453Z,29.80
2022-11-10T22:49:21.449Z,27.90
2022-11-10T22:52:33.502Z,27.70
2022-11-10T22:55:40.465Z,28.60
2022-11-10T22:58:53.335Z,28.40
2022-11-10T23:02:03.503Z,28.10
2022-11-10T23:05:10.517Z,28.00
2022-11-10T23:08:17.490Z,28.30
2022-11-10T23:11:24.492Z,28.30
2022-11-10T23:14:31.516Z,28.40
2022-11-10T23:17:38.531Z,28.70
2022-11-10T23:20:45.542Z,27.40
2022-11-10T23:23:52.529Z,26.60
2022-11-10T23:26:59.556Z,27.70
2022-11-10T23:30:06.551Z,25.20
2022-11-10T23:33:16.585Z,25.20
2022-11-10T23:36:26.637Z,25.50
2022-11-10T23:39:33.589Z,26.20
2022-11-10T23:42:40.562Z,25.30
2022-11-10T23:46:06.042Z,23.50
2022-11-10T23:49:16.606Z,23.30
2022-11-10T23:52:26.624Z,23.60
2022-11-10T23:55:33.611Z,23.70
2022-11-10T23:58:40.645Z,24.50
